Dades meteomassalio
Diari Summary for Febrer 2, 2017 Units:  English    Metric   Both
« Previous Day
Next Day »
Diari Semanal Mensual Anual Personalitzat
  Maxima: Minima: Mijana:
Temperatura: TemperatureC °F 2.4 °F 6.9 °F
Rosada: DewpointC °F 1.4 °F 5.5 °F
Humitat: Humidity % 79 % 91 %
Velocitat del vent: WindSpeedKMH mph 0.0 mph 2.6 mph
Racha vent: WindSpeedGustKMH mph - -
Vent:- - WSW
Pressio: PressurehPa in 1011.4 in -
Pluja: 5.1 in    
Historical Graphs
 
 
Tabular Data for Febrer 2, 2017
Time Temperature Dew Point Pressure Wind Wind Speed Wind Gust Humidity Rainfall Rate (Hourly) solar Conditions
TemperatureC °F DewpointC °F PressurehPa in Calm     Humidity % HourlyPrecipMM in SolarRadiationWatts/m^2 W/m2 Conditions
00:04 6.4 °F 5.4 °F 1017.5 in West 11.1 mph   93 % 0.0 in 0.0 W/m2 RA
00:09 6.6 °F 5.6 °F 1017.5 in Calm     93 % 0.0 in 0.0 W/m2 CLR
00:14 6.5 °F 5.3 °F 1017.5 in Calm     92 % 0.0 in 0.0 W/m2 CLR
00:19 6.4 °F 5.4 °F 1017.5 in Calm     93 % 0.0 in 0.0 W/m2 CLR
00:24 6.4 °F 5.3 °F 1017.5 in Calm     93 % 0.0 in 0.0 W/m2 CLR
00:29 6.3 °F 5.1 °F 1017.5 in Calm     92 % 0.0 in 0.0 W/m2 CLR
00:34 6.2 °F 5.0 °F 1017.5 in Calm     92 % 0.0 in 0.0 W/m2 CLR
00:39 6.1 °F 4.8 °F 1017.2 in Calm     92 % 0.0 in 0.0 W/m2 CLR
00:44 6.0 °F 4.8 °F 1017.5 in Calm     92 % 0.0 in 0.0 W/m2 CLR
00:49 5.9 °F 4.7 °F 1017.2 in Calm     92 % 0.0 in 0.0 W/m2 CLR
00:54 5.8 °F 4.6 °F 1017.2 in Calm     92 % 0.0 in 0.0 W/m2 CLR
00:59 5.7 °F 4.4 °F 1017.2 in Calm     92 % 0.0 in 0.0 W/m2 CLR
01:04 5.7 °F 4.7 °F 1017.2 in SSW 5.6 mph 5.6 mph 93 % 0.0 in 0.0 W/m2 CLR
01:09 5.8 °F 4.8 °F 1017.2 in Calm     93 % 0.0 in 0.0 W/m2 CLR
01:14 5.7 °F 4.4 °F 1017.2 in Calm     92 % 0.0 in 0.0 W/m2 CLR
01:19 5.4 °F 4.2 °F 1017.2 in Calm     92 % 0.0 in 0.0 W/m2 CLR
01:24 5.3 °F 4.1 °F 1017.2 in Calm     92 % 0.0 in 0.0 W/m2 CLR
01:29 5.2 °F 4.0 °F 1017.2 in Calm     92 % 0.0 in 0.0 W/m2 CLR
01:34 5.1 °F 4.1 °F 1017.2 in Calm     93 % 0.0 in 0.0 W/m2 CLR
01:39 5.3 °F 4.2 °F 1017.2 in SW 3.7 mph 3.7 mph 93 % 0.0 in 0.0 W/m2 CLR
01:44 5.2 °F 4.2 °F 1017.2 in Calm     93 % 0.0 in 0.0 W/m2 CLR
01:49 5.2 °F 4.2 °F 1017.2 in Calm     93 % 0.0 in 0.0 W/m2 CLR
01:54 5.2 °F 4.2 °F 1017.2 in Calm     93 % 0.0 in 0.0 W/m2 CLR
01:59 5.2 °F 4.2 °F 1017.2 in Calm     93 % 0.0 in 0.0 W/m2 CLR
02:04 5.1 °F 4.0 °F 1017.2 in Calm     93 % 0.0 in 0.0 W/m2 CLR
02:09 4.8 °F 3.6 °F 1017.2 in Calm     92 % 0.0 in 0.0 W/m2 CLR
02:14 4.7 °F 3.7 °F 1016.8 in Calm     93 % 0.0 in 0.0 W/m2 CLR
02:19 4.5 °F 3.3 °F 1017.2 in Calm     92 % 0.0 in 0.0 W/m2 CLR
02:24 4.6 °F 3.5 °F 1017.2 in Calm     93 % 0.0 in 0.0 W/m2 CLR
02:29 4.5 °F 3.4 °F 1016.8 in Calm     93 % 0.0 in 0.0 W/m2 CLR
02:34 4.3 °F 3.3 °F 1016.8 in Calm     93 % 0.0 in 0.0 W/m2 CLR
02:39 4.2 °F 3.2 °F 1016.8 in Calm     93 % 0.0 in 0.0 W/m2 CLR
02:44 4.3 °F 3.2 °F 1016.8 in Calm     93 % 0.0 in 0.0 W/m2 CLR
02:46 4.2 °F 3.2 °F 1016.8 in Calm     93 % 0.0 in 0.0 W/m2 CLR
02:51 4.2 °F 3.2 °F 1016.8 in Calm     93 % 0.0 in 0.0 W/m2 CLR
02:56 4.3 °F 3.3 °F 1016.8 in Calm     93 % 0.0 in 0.0 W/m2 CLR
03:01 4.5 °F 3.4 °F 1016.8 in Calm     93 % 0.0 in 0.0 W/m2 CLR
03:06 4.6 °F 3.5 °F 1016.8 in Calm     93 % 0.0 in 0.0 W/m2 CLR
03:11 4.4 °F 3.4 °F 1016.8 in Calm     93 % 0.0 in 0.0 W/m2 CLR
03:16 4.2 °F 3.2 °F 1016.8 in Calm     93 % 0.0 in 0.0 W/m2 CLR
03:21 4.1 °F 3.0 °F 1016.8 in Calm     93 % 0.0 in 0.0 W/m2 CLR
03:26 4.1 °F 3.0 °F 1016.5 in Calm     93 % 0.0 in 0.0 W/m2 CLR
03:31 4.1 °F 3.0 °F 1016.5 in Calm     93 % 0.0 in 0.0 W/m2 CLR
03:36 4.1 °F 3.0 °F 1016.5 in Calm     93 % 0.0 in 0.0 W/m2 CLR
03:41 4.1 °F 3.0 °F 1016.5 in Calm     93 % 0.0 in 0.0 W/m2 CLR
03:46 3.9 °F 2.9 °F 1016.5 in Calm     93 % 0.0 in 0.0 W/m2 CLR
03:51 3.8 °F 2.8 °F 1016.5 in Calm     93 % 0.0 in 0.0 W/m2 CLR
03:56 3.8 °F 2.7 °F 1016.5 in Calm     93 % 0.0 in 0.0 W/m2 CLR
04:01 3.8 °F 2.7 °F 1016.5 in Calm     93 % 0.0 in 0.0 W/m2 CLR
04:06 3.8 °F 2.8 °F 1016.5 in Calm     93 % 0.0 in 0.0 W/m2 CLR
04:11 3.8 °F 2.8 °F 1016.5 in Calm     93 % 0.0 in 0.0 W/m2 CLR
04:16 3.8 °F 2.7 °F 1016.1 in Calm     93 % 0.0 in 0.0 W/m2 CLR
04:21 3.9 °F 2.8 °F 1016.1 in SW 5.6 mph 5.6 mph 93 % 0.0 in 0.0 W/m2 CLR
04:26 3.9 °F 2.9 °F 1016.1 in SW 7.4 mph 7.4 mph 93 % 0.0 in 0.0 W/m2 CLR
04:31 3.9 °F 2.9 °F 1016.1 in SSW 5.6 mph   93 % 0.0 in 0.0 W/m2 CLR
04:37 3.9 °F 2.9 °F 1016.1 in Calm     93 % 0.0 in 0.0 W/m2 CLR
04:42 3.9 °F 2.8 °F 1016.1 in Calm     93 % 0.0 in 0.0 W/m2 CLR
04:47 3.8 °F 2.8 °F 1016.1 in Calm     93 % 0.0 in 0.0 W/m2 CLR
04:52 3.8 °F 2.7 °F 1016.1 in Calm     93 % 0.0 in 0.0 W/m2 CLR
04:57 3.7 °F 2.7 °F 1016.1 in Calm     93 % 0.0 in 0.0 W/m2 CLR
05:02 3.6 °F 2.6 °F 1016.1 in Calm     93 % 0.0 in 0.0 W/m2 CLR
05:07 3.6 °F 2.6 °F 1015.8 in Calm     93 % 0.0 in 0.0 W/m2 CLR
05:12 3.8 °F 2.7 °F 1015.8 in Calm     93 % 0.0 in 0.0 W/m2 CLR
05:17 3.8 °F 2.7 °F 1015.8 in Calm     93 % 0.0 in 0.0 W/m2 CLR
05:22 3.7 °F 2.7 °F 1015.8 in Calm     93 % 0.0 in 0.0 W/m2 CLR
05:27 3.6 °F 2.6 °F 1015.8 in Calm     93 % 0.0 in 0.0 W/m2 CLR
05:32 3.6 °F 2.6 °F 1015.8 in Calm     93 % 0.0 in 0.0 W/m2 CLR
05:37 3.4 °F 2.4 °F 1015.8 in Calm     93 % 0.0 in 0.0 W/m2 CLR
05:42 3.3 °F 2.3 °F 1015.8 in Calm     93 % 0.0 in 0.0 W/m2 CLR
05:47 3.3 °F 2.3 °F 1015.8 in Calm     93 % 0.0 in 0.0 W/m2 CLR
05:52 3.2 °F 2.2 °F 1015.5 in Calm     93 % 0.0 in 0.0 W/m2 CLR
05:57 3.2 °F 2.2 °F 1015.5 in Calm     93 % 0.0 in 0.0 W/m2 CLR
06:02 3.2 °F 2.2 °F 1015.5 in Calm     93 % 0.0 in 0.0 W/m2 CLR
06:07 3.2 °F 2.2 °F 1015.5 in Calm     93 % 0.0 in 0.0 W/m2 CLR
06:12 3.3 °F 2.4 °F 1015.8 in Calm     94 % 0.0 in 0.0 W/m2 CLR
06:17 3.2 °F 2.2 °F 1015.8 in Calm     93 % 0.0 in 0.0 W/m2 CLR
06:22 3.1 °F 2.1 °F 1015.8 in Calm     93 % 0.0 in 0.0 W/m2 CLR
06:27 3.0 °F 2.0 °F 1015.8 in Calm     93 % 0.0 in 0.0 W/m2 CLR
06:32 2.9 °F 1.9 °F 1015.8 in Calm     93 % 0.0 in 0.0 W/m2 CLR
06:37 2.9 °F 1.9 °F 1015.8 in Calm     93 % 0.0 in 0.0 W/m2 CLR
06:42 2.9 °F 1.9 °F 1015.8 in Calm     93 % 0.0 in 0.0 W/m2 CLR
06:47 2.9 °F 1.9 °F 1015.8 in Calm     93 % 0.0 in 0.0 W/m2 CLR
06:52 2.8 °F 1.8 °F 1015.8 in Calm     93 % 0.0 in 0.0 W/m2 CLR
06:57 2.8 °F 1.8 °F 1015.8 in Calm     93 % 0.0 in 0.0 W/m2 CLR
07:02 2.7 °F 1.7 °F 1015.8 in Calm     93 % 0.0 in 0.0 W/m2 CLR
07:07 2.8 °F 1.8 °F 1015.8 in Calm     93 % 0.0 in 0.0 W/m2 CLR
07:12 2.7 °F 1.7 °F 1015.8 in Calm     93 % 0.0 in 0.0 W/m2 CLR
07:17 2.7 °F 1.7 °F 1015.8 in Calm     93 % 0.0 in 0.0 W/m2 CLR
07:22 2.7 °F 1.8 °F 1015.8 in Calm     94 % 0.0 in 0.0 W/m2 CLR
07:27 2.6 °F 1.7 °F 1015.8 in Calm     94 % 0.0 in 0.0 W/m2 CLR
07:32 2.6 °F 1.7 °F 1015.8 in Calm     94 % 0.0 in 0.0 W/m2 CLR
07:37 2.6 °F 1.6 °F 1015.8 in Calm     93 % 0.0 in 0.0 W/m2 CLR
07:42 2.6 °F 1.7 °F 1015.8 in Calm     94 % 0.0 in 0.0 W/m2 CLR
07:47 2.4 °F 1.4 °F 1015.8 in Calm     93 % 0.3 in 0.0 W/m2 RA
07:52 2.4 °F 1.6 °F 1016.1 in Calm     94 % 0.3 in 0.0 W/m2 CLR
07:57 2.5 °F 1.6 °F 1015.8 in Calm     94 % 0.3 in 0.0 W/m2 CLR
08:02 2.6 °F 1.7 °F 1015.8 in Calm     94 % 0.3 in 7.0 W/m2 OVC
08:07 2.7 °F 1.8 °F 1015.8 in Calm     94 % 0.3 in 14.0 W/m2 OVC
08:12 2.9 °F 2.0 °F 1016.1 in Calm     94 % 0.3 in 21.0 W/m2 BKN
08:17 2.9 °F 2.0 °F 1015.8 in Calm     94 % 0.3 in 21.0 W/m2 BKN
08:22 2.9 °F 2.0 °F 1015.8 in Calm     94 % 0.3 in 26.0 W/m2 BKN
08:27 2.9 °F 2.1 °F 1015.8 in Calm     94 % 0.3 in 25.0 W/m2 BKN
08:32 3.1 °F 2.2 °F 1015.8 in Calm     94 % 0.3 in 30.0 W/m2 BKN
08:37 3.2 °F 2.3 °F 1015.8 in Calm     94 % 0.3 in 33.0 W/m2 BKN
08:42 3.4 °F 2.5 °F 1015.8 in Calm     94 % 0.3 in 33.0 W/m2 BKN
08:47 3.6 °F 2.7 °F 1015.5 in Calm     94 % 0.0 in 30.0 W/m2 BKN
08:52 3.7 °F 2.8 °F 1015.5 in Calm     94 % 0.0 in 30.0 W/m2 BKN
08:57 3.8 °F 2.9 °F 1015.5 in Calm     94 % 0.0 in 28.0 W/m2 BKN
08:59 3.8 °F 2.9 °F 1015.5 in Calm     94 % 0.0 in 28.0 W/m2 BKN
09:04 3.9 °F 3.0 °F 1015.5 in Calm     94 % 0.0 in 25.0 W/m2 BKN
09:09 4.0 °F 3.1 °F 1015.5 in Calm     94 % 0.0 in 23.0 W/m2 BKN
09:14 4.1 °F 3.2 °F 1015.5 in Calm     94 % 0.0 in 25.0 W/m2 BKN
09:19 4.1 °F 3.2 °F 1015.5 in Calm     94 % 0.0 in 25.0 W/m2 BKN
09:24 4.1 °F 3.2 °F 1015.5 in Calm     94 % 0.0 in 30.0 W/m2 BKN
09:29 4.2 °F 3.3 °F 1015.5 in Calm     94 % 0.0 in 37.0 W/m2 BKN
09:34 4.4 °F 3.5 °F 1015.5 in Calm     94 % 0.0 in 33.0 W/m2 BKN
09:39 4.5 °F 3.6 °F 1015.8 in Calm     94 % 0.0 in 28.0 W/m2 BKN
09:44 4.6 °F 3.7 °F 1015.8 in Calm     94 % 0.0 in 26.0 W/m2 BKN
09:49 4.6 °F 3.7 °F 1015.8 in Calm     94 % 0.0 in 33.0 W/m2 BKN
09:54 4.7 °F 3.8 °F 1015.8 in Calm     94 % 0.0 in 42.0 W/m2 BKN
09:59 4.8 °F 3.9 °F 1015.8 in Calm     94 % 0.0 in 46.0 W/m2 BKN
10:04 4.9 °F 4.1 °F 1015.8 in Calm     94 % 0.0 in 56.0 W/m2 SCT
10:09 5.1 °F 4.2 °F 1015.8 in Calm     94 % 0.0 in 65.0 W/m2 SCT
10:14 5.3 °F 4.4 °F 1015.8 in Calm     94 % 0.0 in 72.0 W/m2 SCT
10:19 5.4 °F 4.5 °F 1015.8 in Calm     94 % 0.0 in 83.0 W/m2 FEW
10:24 5.6 °F 4.7 °F 1015.8 in Calm     94 % 0.0 in 93.0 W/m2 FEW
10:29 5.7 °F 4.8 °F 1015.8 in Calm     94 % 0.0 in 100.0 W/m2 CLR
10:34 5.9 °F 5.0 °F 1015.8 in Calm     94 % 0.0 in 111.0 W/m2 CLR
10:39 6.1 °F 5.2 °F 1015.8 in Calm     94 % 0.0 in 120.0 W/m2 CLR
10:44 6.1 °F 5.1 °F 1015.8 in Calm     93 % 0.0 in 100.0 W/m2 CLR
10:49 6.2 °F 5.2 °F 1015.8 in Calm     93 % 0.0 in 67.0 W/m2 CLR
10:54 6.3 °F 5.3 °F 1015.8 in Calm     93 % 0.3 in 60.0 W/m2 RA
10:59 6.4 °F 5.4 °F 1015.8 in Calm     93 % 0.3 in 56.0 W/m2 SCT
11:04 6.6 °F 5.7 °F 1015.8 in Calm     94 % 0.5 in 53.0 W/m2 RA
11:09 6.8 °F 5.8 °F 1015.8 in Calm     93 % 0.5 in 46.0 W/m2 RA
11:14 6.9 °F 5.8 °F 1015.8 in Calm     93 % 0.8 in 44.0 W/m2 RA
11:19 6.9 °F 5.9 °F 1015.8 in Calm     93 % 1.0 in 51.0 W/m2 RA
11:24 7.0 °F 5.9 °F 1016.1 in Calm     93 % 1.3 in 62.0 W/m2 RA
11:29 7.1 °F 6.0 °F 1015.8 in Calm     93 % 1.5 in 69.0 W/m2 RA
11:34 7.2 °F 6.2 °F 1015.8 in Calm     93 % 1.5 in 76.0 W/m2 FEW
11:39 7.3 °F 6.2 °F 1015.8 in Calm     93 % 1.8 in 97.0 W/m2 RA
11:44 7.3 °F 6.3 °F 1015.8 in East 3.7 mph 3.7 mph 93 % 2.0 in 120.0 W/m2 RA
11:49 7.4 °F 6.4 °F 1015.8 in Calm     93 % 2.0 in 127.0 W/m2 CLR
11:54 7.6 °F 6.6 °F 1015.8 in Calm     93 % 1.8 in 109.0 W/m2 CLR
11:59 7.8 °F 6.7 °F 1015.8 in Calm     93 % 2.0 in 97.0 W/m2 RA
12:04 7.9 °F 6.8 °F 1015.5 in Calm     93 % 1.8 in 118.0 W/m2 CLR
12:10 8.0 °F 6.9 °F 1015.5 in Calm     93 % 1.5 in 123.0 W/m2 CLR
12:15 8.1 °F 7.0 °F 1015.5 in Calm     93 % 1.5 in 142.0 W/m2 CLR
12:20 8.2 °F 7.2 °F 1015.1 in Calm     93 % 1.3 in 137.0 W/m2 CLR
12:25 8.4 °F 7.3 °F 1015.1 in Calm     93 % 1.0 in 105.0 W/m2 CLR
12:30 8.6 °F 7.6 °F 1015.1 in Calm     93 % 0.8 in 111.0 W/m2 CLR
12:35 8.7 °F 7.6 °F 1015.1 in Calm     93 % 0.8 in 134.0 W/m2 CLR
12:40 8.8 °F 7.7 °F 1014.8 in NE 5.6 mph 5.6 mph 93 % 0.5 in 104.0 W/m2 CLR
12:45 8.9 °F 7.8 °F 1014.8 in ENE 1.9 mph   93 % 0.3 in 109.0 W/m2 CLR
12:50 9.1 °F 8.0 °F 1014.8 in ESE 9.7 mph 9.7 mph 93 % 0.3 in 137.0 W/m2 CLR
12:55 9.2 °F 8.1 °F 1014.4 in Calm     93 % 0.3 in 144.0 W/m2 CLR
13:00 9.3 °F 8.2 °F 1014.4 in Calm   0.2 mph 93 % 0.0 in 100.0 W/m2 CLR
13:05 9.3 °F 8.3 °F 1014.4 in ENE 5.6 mph 5.6 mph 93 % 0.0 in 84.0 W/m2 CLR
13:10 9.4 °F 8.4 °F 1014.4 in Calm   1.3 mph 93 % 0.0 in 77.0 W/m2 CLR
13:15 9.6 °F 8.3 °F 1014.4 in Calm     92 % 0.0 in 69.0 W/m2 FEW
13:20 9.6 °F 8.4 °F 1014.4 in Calm     92 % 0.0 in 70.0 W/m2 FEW
13:25 9.7 °F 8.6 °F 1014.1 in Calm     93 % 0.0 in 100.0 W/m2 FEW
13:30 9.7 °F 8.5 °F 1014.1 in Calm     92 % 0.0 in 120.0 W/m2 CLR
13:35 9.8 °F 8.6 °F 1013.8 in Calm     92 % 0.0 in 132.0 W/m2 CLR
13:40 9.9 °F 8.7 °F 1013.8 in Calm     92 % 0.0 in 149.0 W/m2 CLR
13:45 10.0 °F 8.8 °F 1013.8 in Calm     92 % 0.0 in 162.0 W/m2 CLR
13:50 10.1 °F 8.9 °F 1013.4 in Calm     92 % 0.0 in 171.0 W/m2 CLR
13:55 10.2 °F 8.8 °F 1013.4 in Calm     91 % 0.0 in 165.0 W/m2 CLR
14:00 10.3 °F 8.9 °F 1013.1 in Calm     91 % 0.0 in 139.0 W/m2 CLR
14:05 10.4 °F 9.1 °F 1013.1 in Calm     91 % 0.0 in 130.0 W/m2 CLR
14:10 10.5 °F 9.1 °F 1013.1 in Calm     91 % 0.0 in 144.0 W/m2 CLR
14:15 10.6 °F 9.0 °F 1013.1 in Calm     90 % 0.0 in 158.0 W/m2 CLR
14:20 10.7 °F 9.2 °F 1013.1 in Calm     90 % 0.0 in 160.0 W/m2 CLR
14:25 10.7 °F 9.0 °F 1013.1 in Calm     89 % 0.0 in 158.0 W/m2 CLR
14:30 10.8 °F 9.1 °F 1012.8 in Calm     89 % 0.0 in 155.0 W/m2 CLR
14:35 10.9 °F 9.2 °F 1012.4 in Calm     89 % 0.0 in 158.0 W/m2 CLR
14:40 10.9 °F 9.3 °F 1012.4 in Calm     90 % 0.0 in 165.0 W/m2 CLR
14:45 10.9 °F 9.4 °F 1012.4 in Calm     90 % 0.0 in 176.0 W/m2 CLR
14:50 11.1 °F 9.6 °F 1012.4 in Calm     90 % 0.0 in 193.0 W/m2 CLR
14:55 11.2 °F 9.7 °F 1012.4 in Calm     90 % 0.0 in 209.0 W/m2 CLR
15:00 11.3 °F 9.8 °F 1012.1 in Calm     90 % 0.0 in 225.0 W/m2 CLR
15:05 11.4 °F 9.9 °F 1012.1 in Calm     90 % 0.0 in 213.0 W/m2 CLR
15:10 11.5 °F 9.9 °F 1011.7 in Calm     90 % 0.0 in 202.0 W/m2 CLR
15:15 11.6 °F 9.8 °F 1011.7 in Calm     89 % 0.0 in 236.0 W/m2 CLR
15:20 11.6 °F 10.0 °F 1011.4 in Calm     90 % 0.0 in 232.0 W/m2 CLR
15:25 11.7 °F 10.1 °F 1011.7 in Calm     90 % 0.0 in 225.0 W/m2 CLR
15:30 11.8 °F 10.1 °F 1011.7 in Calm     89 % 0.0 in 190.0 W/m2 CLR
15:35 11.9 °F 10.1 °F 1011.7 in Calm     89 % 0.0 in 156.0 W/m2 CLR
15:40 11.9 °F 10.2 °F 1011.4 in Calm     89 % 0.0 in 141.0 W/m2 CLR
15:45 11.9 °F 9.9 °F 1011.7 in Calm     88 % 0.0 in 135.0 W/m2 CLR
15:50 11.9 °F 10.0 °F 1011.7 in Calm     88 % 0.0 in 144.0 W/m2 CLR
15:55 11.9 °F 9.8 °F 1011.7 in Calm     87 % 0.0 in 146.0 W/m2 CLR
16:00 12.0 °F 10.1 °F 1011.7 in Calm     88 % 0.0 in 134.0 W/m2 CLR
16:05 12.0 °F 10.1 °F 1011.7 in Calm     88 % 0.0 in 125.0 W/m2 CLR
16:10 12.1 °F 10.1 °F 1011.7 in Calm     88 % 0.0 in 109.0 W/m2 CLR
16:15 12.1 °F 10.1 °F 1011.7 in Calm     88 % 0.0 in 109.0 W/m2 CLR
16:20 12.1 °F 10.2 °F 1011.7 in Calm     88 % 0.0 in 97.0 W/m2 CLR
16:25 12.1 °F 10.2 °F 1011.7 in Calm     88 % 0.0 in 83.0 W/m2 CLR
16:30 12.1 °F 9.9 °F 1011.7 in Calm     87 % 0.0 in 72.0 W/m2 FEW
16:35 12.1 °F 10.1 °F 1012.1 in Calm     88 % 0.0 in 67.0 W/m2 FEW
16:40 12.1 °F 9.9 °F 1012.1 in Calm     87 % 0.0 in 67.0 W/m2 FEW
16:46 12.1 °F 9.9 °F 1012.1 in Calm     87 % 0.0 in 54.0 W/m2 SCT
16:51 12.1 °F 9.9 °F 1012.1 in Calm     87 % 0.0 in 49.0 W/m2 SCT
16:56 12.1 °F 9.9 °F 1012.1 in Calm     87 % 0.0 in 56.0 W/m2 SCT
17:01 12.1 °F 9.9 °F 1011.7 in Calm     87 % 0.0 in 51.0 W/m2 SCT
17:06 12.1 °F 10.1 °F 1012.1 in Calm     88 % 0.0 in 44.0 W/m2 SCT
17:11 12.0 °F 10.1 °F 1012.1 in Calm     88 % 0.0 in 44.0 W/m2 SCT
17:16 11.9 °F 10.0 °F 1011.7 in Calm     88 % 0.0 in 40.0 W/m2 BKN
17:21 11.9 °F 9.9 °F 1011.7 in Calm     88 % 0.0 in 35.0 W/m2 BKN
17:26 11.9 °F 10.1 °F 1011.7 in SSW 9.3 mph 9.3 mph 89 % 0.0 in 33.0 W/m2 BKN
17:31 11.9 °F 10.1 °F 1011.7 in SSE 6.4 mph 6.4 mph 89 % 0.0 in 35.0 W/m2 BKN
17:36 11.9 °F 9.9 °F 1011.7 in SSE 3.7 mph   88 % 0.0 in 33.0 W/m2 BKN
17:41 11.9 °F 9.9 °F 1011.7 in Calm     88 % 0.0 in 28.0 W/m2 BKN
17:46 11.9 °F 10.0 °F 1012.1 in Calm     88 % 0.0 in 25.0 W/m2 BKN
17:51 11.9 °F 9.8 °F 1012.1 in Calm     87 % 0.0 in 23.0 W/m2 BKN
17:56 11.9 °F 9.8 °F 1012.4 in Calm     87 % 0.0 in 18.0 W/m2 BKN
18:01 11.9 °F 9.8 °F 1012.4 in West 5.6 mph 5.6 mph 87 % 0.0 in 11.0 W/m2 BKN
18:06 12.0 °F 9.7 °F 1012.8 in SW 11.1 mph 11.1 mph 86 % 0.0 in 5.0 W/m2 BKN
18:11 12.1 °F 9.6 °F 1014.1 in WSW 59.5 mph 59.5 mph 85 % 0.0 in 0.0 W/m2 OVC
18:16 10.8 °F 7.7 °F 1015.8 in NW 69.2 mph 69.2 mph 81 % 0.3 in 0.0 W/m2 RA
18:21 9.6 °F 7.2 °F 1016.1 in NW 51.8 mph 51.8 mph 85 % 0.8 in 0.0 W/m2 RA
18:26 9.1 °F 7.0 °F 1016.1 in NW 42.6 mph 42.6 mph 87 % 1.5 in 0.0 W/m2 RA
18:31 8.8 °F 6.9 °F 1016.1 in NW 33.3 mph 33.3 mph 88 % 2.0 in 0.0 W/m2 RA
18:36 8.7 °F 7.0 °F 1016.5 in NW 31.5 mph 31.5 mph 89 % 2.3 in 0.0 W/m2 RA
18:41 8.7 °F 6.9 °F 1016.5 in NW 22.2 mph 22.2 mph 89 % 2.3 in 0.0 W/m2 RA
18:46 8.6 °F 6.9 °F 1016.1 in NW 22.2 mph 22.2 mph 89 % 2.5 in 0.0 W/m2 RA
18:51 8.6 °F 6.9 °F 1016.5 in NW 20.9 mph 20.9 mph 89 % 2.5 in 0.0 W/m2 CLR
18:56 8.7 °F 7.0 °F 1016.8 in NW 18.5 mph 18.5 mph 89 % 2.5 in 0.0 W/m2 CLR
19:01 8.7 °F 6.9 °F 1016.8 in WNW 11.1 mph 11.1 mph 89 % 2.5 in 0.0 W/m2 CLR
19:06 8.7 °F 6.8 °F 1016.8 in WNW 14.8 mph 14.8 mph 88 % 2.5 in 0.0 W/m2 CLR
19:11 8.8 °F 6.9 °F 1016.8 in WNW 18.5 mph 18.5 mph 88 % 2.5 in 0.0 W/m2 CLR
19:16 9.0 °F 6.9 °F 1016.8 in WNW 18.5 mph 18.5 mph 87 % 2.3 in 0.0 W/m2 CLR
19:21 9.1 °F 6.9 °F 1017.2 in WNW 5.6 mph 5.6 mph 86 % 1.8 in 0.0 W/m2 CLR
19:26 9.0 °F 6.9 °F 1017.2 in Calm     87 % 1.3 in 0.0 W/m2 CLR
19:31 8.7 °F 6.8 °F 1017.2 in Calm     88 % 0.5 in 0.0 W/m2 CLR
19:36 8.5 °F 6.8 °F 1017.2 in Calm     89 % 0.5 in 0.0 W/m2 CLR
19:41 8.4 °F 6.8 °F 1017.2 in Calm     90 % 0.3 in 0.0 W/m2 CLR
19:46 8.3 °F 6.7 °F 1016.8 in Calm     90 % 0.0 in 0.0 W/m2 CLR
19:51 8.1 °F 6.7 °F 1016.8 in Calm     91 % 0.0 in 0.0 W/m2 CLR
19:56 8.0 °F 6.4 °F 1016.8 in Calm     90 % 0.0 in 0.0 W/m2 CLR
20:01 7.9 °F 6.6 °F 1017.2 in Calm     91 % 0.0 in 0.0 W/m2 CLR
20:06 7.7 °F 6.3 °F 1017.5 in Calm     91 % 0.0 in 0.0 W/m2 CLR
20:11 7.7 °F 6.3 °F 1017.2 in WSW 9.3 mph 9.3 mph 91 % 0.0 in 0.0 W/m2 CLR
20:16 7.6 °F 6.2 °F 1016.8 in WSW 5.6 mph 5.6 mph 91 % 0.0 in 0.0 W/m2 CLR
20:21 7.4 °F 6.1 °F 1016.8 in Calm     91 % 0.0 in 0.0 W/m2 CLR
20:26 7.4 °F 6.2 °F 1017.2 in Calm     92 % 0.0 in 0.0 W/m2 CLR
20:31 7.3 °F 6.1 °F 1016.8 in Calm     92 % 0.0 in 0.0 W/m2 CLR
20:36 7.3 °F 6.1 °F 1016.8 in WSW 9.7 mph 9.7 mph 92 % 0.0 in 0.0 W/m2 CLR
20:41 7.3 °F 6.1 °F 1016.8 in WSW 14.8 mph 14.8 mph 92 % 0.0 in 0.0 W/m2 CLR
20:46 7.3 °F 6.1 °F 1016.8 in WSW 9.3 mph 9.3 mph 92 % 0.0 in 0.0 W/m2 CLR
20:51 7.3 °F 6.1 °F 1017.2 in West 5.6 mph 5.6 mph 92 % 0.0 in 0.0 W/m2 CLR
20:56 7.5 °F 6.1 °F 1017.5 in Calm     91 % 0.0 in 0.0 W/m2 CLR
21:01 7.3 °F 5.8 °F 1017.2 in Calm     90 % 0.0 in 0.0 W/m2 CLR
21:06 7.1 °F 5.7 °F 1017.2 in Calm     91 % 0.0 in 0.0 W/m2 CLR
21:11 6.9 °F 5.5 °F 1017.2 in Calm     91 % 0.0 in 0.0 W/m2 CLR
21:16 6.7 °F 5.3 °F 1017.2 in Calm     91 % 0.0 in 0.0 W/m2 CLR
21:21 6.5 °F 5.1 °F 1017.2 in Calm     91 % 0.0 in 0.0 W/m2 CLR
21:26 6.5 °F 5.3 °F 1017.2 in Calm     92 % 0.0 in 0.0 W/m2 CLR
21:31 6.4 °F 5.2 °F 1017.2 in Calm     92 % 0.0 in 0.0 W/m2 CLR
21:36 6.3 °F 5.1 °F 1017.5 in Calm     92 % 0.0 in 0.0 W/m2 CLR
21:41 6.2 °F 5.0 °F 1017.5 in Calm     92 % 0.0 in 0.0 W/m2 CLR
21:46 6.1 °F 4.9 °F 1017.5 in Calm     92 % 0.0 in 0.0 W/m2 CLR
21:51 6.1 °F 4.8 °F 1017.8 in Calm     92 % 0.0 in 0.0 W/m2 CLR
21:56 5.9 °F 4.7 °F 1017.5 in Calm     92 % 0.0 in 0.0 W/m2 CLR
22:01 5.8 °F 4.8 °F 1017.8 in Calm     93 % 0.0 in 0.0 W/m2 CLR
22:06 5.8 °F 4.8 °F 1017.8 in Calm     93 % 0.0 in 0.0 W/m2 CLR
22:11 5.8 °F 4.8 °F 1017.8 in Calm     93 % 0.0 in 0.0 W/m2 CLR
22:16 5.8 °F 4.7 °F 1018.2 in Calm     93 % 0.0 in 0.0 W/m2 CLR
22:22 5.7 °F 4.7 °F 1017.8 in WSW 9.7 mph 9.7 mph 93 % 0.0 in 0.0 W/m2 CLR
22:26 5.6 °F 4.6 °F 1017.8 in WSW 11.1 mph 11.1 mph 93 % 0.0 in 0.0 W/m2 CLR
22:32 5.8 °F 4.8 °F 1018.2 in WSW 3.7 mph   93 % 0.0 in 0.0 W/m2 CLR
22:37 6.5 °F 5.4 °F 1018.2 in West 11.1 mph 11.1 mph 93 % 0.0 in 0.0 W/m2 CLR
22:42 7.7 °F 6.7 °F 1018.2 in WSW 13.0 mph 13.0 mph 93 % 0.0 in 0.0 W/m2 CLR
22:47 7.9 °F 6.0 °F 1018.2 in WSW 9.3 mph 9.3 mph 88 % 0.0 in 0.0 W/m2 CLR
22:52 7.6 °F 5.6 °F 1018.5 in WSW 1.9 mph   87 % 0.0 in 0.0 W/m2 CLR
22:57 7.8 °F 5.9 °F 1018.5 in Calm     88 % 0.0 in 0.0 W/m2 CLR
23:02 7.6 °F 5.6 °F 1018.2 in WSW 7.4 mph 7.4 mph 87 % 0.0 in 0.0 W/m2 CLR
23:07 8.3 °F 6.3 °F 1018.5 in West 14.8 mph 14.8 mph 87 % 0.0 in 0.0 W/m2 CLR
23:12 9.2 °F 6.3 °F 1018.2 in West 16.7 mph 16.7 mph 82 % 0.0 in 0.0 W/m2 CLR
23:17 9.1 °F 6.2 °F 1018.2 in West 13.0 mph 13.0 mph 82 % 0.0 in 0.0 W/m2 CLR
23:22 9.2 °F 6.3 °F 1018.2 in WSW 7.4 mph 7.4 mph 82 % 0.0 in 0.0 W/m2 CLR
23:27 9.5 °F 6.2 °F 1018.2 in West 5.6 mph 5.6 mph 80 % 0.0 in 0.0 W/m2 CLR
23:32 9.5 °F 6.1 °F 1018.2 in Calm     79 % 0.0 in 0.0 W/m2 CLR
23:37 9.1 °F 5.8 °F 1018.2 in West 9.7 mph 9.7 mph 80 % 0.0 in 0.0 W/m2 CLR
23:42 9.0 °F 5.9 °F 1018.2 in West 7.4 mph 7.4 mph 81 % 0.0 in 0.0 W/m2 CLR
23:47 8.3 °F 5.4 °F 1018.2 in Calm     82 % 0.0 in 0.0 W/m2 CLR
23:52 7.8 °F 5.2 °F 1018.2 in Calm     84 % 0.0 in 0.0 W/m2 CLR
23:57 7.5 °F 5.3 °F 1018.2 in Calm     86 % 0.0 in 0.0 W/m2 CLR
Lo Temps de Massalio
Compliments of Weather Underground - 1.25 mb